createdAt,value
2019-05-10T00:00:02.388Z,12.08
2019-05-10T00:02:36.519Z,12.05
2019-05-10T00:05:08.777Z,12.05
2019-05-10T00:07:40.979Z,11.79
2019-05-10T00:10:13.237Z,11.56
2019-05-10T00:12:45.486Z,11.42
2019-05-10T00:15:18.810Z,11.29
2019-05-10T00:17:51.069Z,11.25
2019-05-10T00:20:23.372Z,11.02
2019-05-10T00:22:57.724Z,10.80
2019-05-10T00:25:30.000Z,10.71
2019-05-10T00:28:02.288Z,10.71
2019-05-10T00:30:34.544Z,10.77
2019-05-10T00:33:07.828Z,10.59
2019-05-10T00:35:40.103Z,10.51
2019-05-10T00:38:12.323Z,10.48
2019-05-10T00:40:44.537Z,10.48
2019-05-10T00:43:16.781Z,10.55
2019-05-10T00:45:49.007Z,10.56
2019-05-10T00:48:21.243Z,10.57
2019-05-10T00:50:53.446Z,10.57
2019-05-10T00:53:25.672Z,10.63
2019-05-10T00:55:57.919Z,10.68
2019-05-10T00:58:30.150Z,10.74
2019-05-10T01:01:02.427Z,10.82
2019-05-10T01:03:34.640Z,10.88
2019-05-10T01:06:06.891Z,10.87
2019-05-10T01:08:39.110Z,10.93
2019-05-10T01:11:11.346Z,10.96
2019-05-10T01:13:45.183Z,10.99
2019-05-10T01:16:17.406Z,10.97
2019-05-10T01:18:49.640Z,10.99
2019-05-10T01:21:21.883Z,10.98
2019-05-10T01:23:54.115Z,10.90
2019-05-10T01:26:26.656Z,10.83
2019-05-10T01:28:58.862Z,10.76
2019-05-10T01:31:31.109Z,10.71
2019-05-10T01:34:03.368Z,10.72
2019-05-10T01:36:35.549Z,10.82
2019-05-10T01:39:07.783Z,10.81
2019-05-10T01:41:42.274Z,10.72
2019-05-10T01:44:14.513Z,10.68
2019-05-10T01:46:46.733Z,10.66
2019-05-10T01:49:18.947Z,10.57
2019-05-10T01:51:51.247Z,10.50
2019-05-10T01:54:23.681Z,10.46
2019-05-10T01:56:55.955Z,10.43
2019-05-10T01:59:28.157Z,10.36
2019-05-10T02:02:00.412Z,10.34
2019-05-10T02:04:32.704Z,10.34
2019-05-10T02:07:04.907Z,10.40
2019-05-10T02:09:37.171Z,10.40
2019-05-10T02:12:09.395Z,10.38
2019-05-10T02:14:41.597Z,10.44
2019-05-10T02:17:13.844Z,10.51
2019-05-10T02:19:46.065Z,10.49
2019-05-10T02:22:18.285Z,10.42
2019-05-10T02:24:50.527Z,10.43
2019-05-10T02:27:23.841Z,10.41
2019-05-10T02:29:56.099Z,10.42
2019-05-10T02:32:28.414Z,10.40
2019-05-10T02:35:00.627Z,10.38
2019-05-10T02:37:32.839Z,10.47
2019-05-10T02:40:05.067Z,10.48
2019-05-10T02:42:37.336Z,10.42
2019-05-10T02:45:09.547Z,10.34
2019-05-10T02:47:41.750Z,10.35
2019-05-10T02:50:14.023Z,10.43
2019-05-10T02:52:46.251Z,10.51
2019-05-10T02:55:20.201Z,10.49
2019-05-10T02:57:52.596Z,10.50
2019-05-10T03:00:24.860Z,10.38
2019-05-10T03:02:57.112Z,10.38
2019-05-10T03:05:29.334Z,10.36
2019-05-10T03:08:01.559Z,10.36
2019-05-10T03:10:35.311Z,10.44
2019-05-10T03:13:07.520Z,10.53
2019-05-10T03:15:39.798Z,10.51
2019-05-10T03:18:11.835Z,10.38
2019-05-10T03:20:44.045Z,10.31
2019-05-10T03:23:16.300Z,10.26
2019-05-10T03:25:49.599Z,10.23
2019-05-10T03:28:21.896Z,10.25
2019-05-10T03:30:54.119Z,10.30
2019-05-10T03:33:26.370Z,10.30
2019-05-10T03:35:58.652Z,10.23
2019-05-10T03:38:30.895Z,10.22
2019-05-10T03:41:03.120Z,10.18
2019-05-10T03:43:35.363Z,10.16
2019-05-10T03:46:07.605Z,10.13
2019-05-10T03:48:40.820Z,10.06
2019-05-10T03:51:13.037Z,10.11
2019-05-10T03:53:45.266Z,10.14
2019-05-10T03:56:17.539Z,10.23
2019-05-10T03:58:49.828Z,10.28
2019-05-10T04:01:22.030Z,10.26
2019-05-10T04:03:54.282Z,10.19
2019-05-10T04:06:26.577Z,10.18
2019-05-10T04:08:58.828Z,10.15
2019-05-10T04:11:31.096Z,10.19
2019-05-10T04:14:03.329Z,10.21
2019-05-10T04:16:35.563Z,10.21
2019-05-10T04:19:07.800Z,10.22
2019-05-10T04:21:40.007Z,10.31
2019-05-10T04:24:12.276Z,10.30
2019-05-10T04:26:44.479Z,10.38
2019-05-10T04:29:16.699Z,10.43
2019-05-10T04:31:48.991Z,10.43
2019-05-10T04:34:21.212Z,10.44
2019-05-10T04:36:53.446Z,10.48
2019-05-10T04:39:25.661Z,10.51
2019-05-10T04:42:00.139Z,10.57
2019-05-10T04:44:32.365Z,10.53
2019-05-10T04:47:04.590Z,10.52
2019-05-10T04:49:36.799Z,10.49
2019-05-10T04:52:09.053Z,10.51
2019-05-10T04:54:41.278Z,10.47
2019-05-10T04:57:13.581Z,10.51
2019-05-10T04:59:45.789Z,10.48
2019-05-10T05:02:22.064Z,10.47
2019-05-10T05:04:52.059Z,10.56
2019-05-10T05:07:24.707Z,10.53
2019-05-10T05:09:57.328Z,10.55
2019-05-10T05:12:29.608Z,10.56
2019-05-10T05:15:01.965Z,10.66
2019-05-10T05:17:34.283Z,10.67
2019-05-10T05:20:06.513Z,10.65
2019-05-10T05:22:38.785Z,10.67
2019-05-10T05:25:12.569Z,10.76
2019-05-10T05:27:44.912Z,10.77
2019-05-10T05:30:17.131Z,10.60
2019-05-10T05:32:49.369Z,10.58
2019-05-10T05:35:21.632Z,10.67
2019-05-10T05:37:53.841Z,10.68
2019-05-10T05:40:26.066Z,10.75
2019-05-10T05:43:02.792Z,10.83
2019-05-10T05:45:33.927Z,10.89
2019-05-10T05:48:06.136Z,10.97
2019-05-10T05:50:38.371Z,11.05
2019-05-10T05:53:13.186Z,11.05
2019-05-10T05:55:45.422Z,11.05
2019-05-10T05:58:26.573Z,11.13
2019-05-10T06:00:51.739Z,11.11
2019-05-10T06:03:28.127Z,11.10
2019-05-10T06:05:57.907Z,11.23
2019-05-10T06:08:30.470Z,11.35
2019-05-10T06:11:02.751Z,11.30
2019-05-10T06:13:34.979Z,11.32
2019-05-10T06:16:12.749Z,11.39
2019-05-10T06:18:41.544Z,11.50
2019-05-10T06:21:17.982Z,11.52
2019-05-10T06:23:49.048Z,11.58
2019-05-10T06:26:28.104Z,11.59
2019-05-10T06:28:59.480Z,11.59
2019-05-10T06:31:29.092Z,11.75
2019-05-10T06:34:01.438Z,11.84
2019-05-10T06:36:33.653Z,11.84
2019-05-10T06:39:05.978Z,11.93
2019-05-10T06:41:38.334Z,11.92
2019-05-10T06:44:10.518Z,12.00
2019-05-10T06:46:42.762Z,12.10
2019-05-10T06:49:14.978Z,12.17
2019-05-10T06:51:48.953Z,12.34
2019-05-10T06:54:21.113Z,12.48
2019-05-10T06:56:53.444Z,12.42
2019-05-10T06:59:26.375Z,12.44
2019-05-10T07:01:58.709Z,12.46
2019-05-10T07:04:36.052Z,12.33
2019-05-10T07:07:10.388Z,12.14
2019-05-10T07:10:01.564Z,12.09
2019-05-10T07:12:15.314Z,12.02
2019-05-10T07:14:47.021Z,12.10
2019-05-10T07:17:19.262Z,12.25
2019-05-10T07:19:54.760Z,12.47
2019-05-10T07:22:26.792Z,12.67
2019-05-10T07:25:04.237Z,12.86
2019-05-10T07:27:36.544Z,12.85
2019-05-10T07:30:07.359Z,13.04
2019-05-10T07:32:39.627Z,13.14
2019-05-10T07:35:11.813Z,13.26
2019-05-10T07:37:47.611Z,13.18
2019-05-10T07:40:18.296Z,13.25
2019-05-10T07:42:50.518Z,13.24
2019-05-10T07:45:25.514Z,13.23
2019-05-10T07:47:57.006Z,13.23
2019-05-10T07:50:29.225Z,13.33
2019-05-10T07:53:01.515Z,13.42
2019-05-10T07:55:33.742Z,13.44
2019-05-10T07:58:07.064Z,13.57
2019-05-10T08:00:44.590Z,13.72
2019-05-10T08:03:17.761Z,13.80
2019-05-10T08:05:55.245Z,14.05
2019-05-10T08:08:21.475Z,14.17
2019-05-10T08:10:53.734Z,14.08
2019-05-10T08:13:28.215Z,14.03
2019-05-10T08:15:59.954Z,14.25
2019-05-10T08:18:33.434Z,14.31
2019-05-10T08:21:18.794Z,14.32
2019-05-10T08:23:41.097Z,14.24
2019-05-10T08:26:19.700Z,14.17
2019-05-10T08:28:47.523Z,14.31
2019-05-10T08:31:21.801Z,14.30
2019-05-10T08:33:58.705Z,14.31
2019-05-10T08:36:27.673Z,14.28
2019-05-10T08:39:07.727Z,14.40
2019-05-10T08:41:35.350Z,14.64
2019-05-10T08:44:16.623Z,14.69
2019-05-10T08:46:44.330Z,14.73
2019-05-10T08:49:15.392Z,14.67
2019-05-10T08:51:49.472Z,14.64
2019-05-10T08:54:22.489Z,14.64
2019-05-10T08:57:01.273Z,14.80
2019-05-10T08:59:30.886Z,15.04
2019-05-10T09:02:04.476Z,15.32
2019-05-10T09:04:45.402Z,15.58
2019-05-10T09:07:11.868Z,15.64
2019-05-10T09:09:49.647Z,15.66
2019-05-10T09:12:18.432Z,15.48
2019-05-10T09:14:57.311Z,15.22
2019-05-10T09:17:28.275Z,14.91
2019-05-10T09:19:59.604Z,14.92
2019-05-10T09:22:34.125Z,15.10
2019-05-10T09:25:05.746Z,15.34
2019-05-10T09:27:37.997Z,15.56
2019-05-10T09:30:14.052Z,15.40
2019-05-10T09:32:44.545Z,15.38
2019-05-10T09:35:16.804Z,15.33
2019-05-10T09:37:56.733Z,15.37
2019-05-10T09:40:23.036Z,15.34
2019-05-10T09:42:59.405Z,14.92
2019-05-10T09:45:29.186Z,14.89
2019-05-10T09:48:02.500Z,14.98
2019-05-10T09:50:41.036Z,15.36
2019-05-10T09:53:10.267Z,15.38
2019-05-10T09:55:45.506Z,15.11
2019-05-10T09:58:21.686Z,15.36
2019-05-10T10:00:51.150Z,15.94
2019-05-10T10:03:23.458Z,16.32
2019-05-10T10:06:05.643Z,16.40
2019-05-10T10:08:29.597Z,16.55
2019-05-10T10:11:13.945Z,16.50
2019-05-10T10:13:40.818Z,16.35
2019-05-10T10:16:14.567Z,16.25
2019-05-10T10:18:43.623Z,16.26
2019-05-10T10:21:18.954Z,16.30
2019-05-10T10:23:49.864Z,16.52
2019-05-10T10:26:22.615Z,16.57
2019-05-10T10:28:59.545Z,16.52
2019-05-10T10:31:33.325Z,16.12
2019-05-10T10:34:03.882Z,15.56
2019-05-10T10:36:40.423Z,15.24
2019-05-10T10:39:10.074Z,15.04
2019-05-10T10:41:42.397Z,15.03
2019-05-10T10:44:14.617Z,15.22
2019-05-10T10:46:48.067Z,15.41
2019-05-10T10:49:23.193Z,15.39
2019-05-10T10:51:57.399Z,15.34
2019-05-10T10:54:35.863Z,15.77
2019-05-10T10:57:03.463Z,15.97
2019-05-10T10:59:37.388Z,15.63
2019-05-10T11:02:32.710Z,15.22
2019-05-10T11:04:46.554Z,15.00
2019-05-10T11:07:18.886Z,15.03
2019-05-10T11:09:53.667Z,15.05
2019-05-10T11:12:25.025Z,15.12
2019-05-10T11:14:57.325Z,15.41
2019-05-10T11:17:30.814Z,16.14
2019-05-10T11:20:03.032Z,16.83
2019-05-10T11:22:35.254Z,16.93
2019-05-10T11:25:10.427Z,17.34
2019-05-10T11:27:41.774Z,18.06
2019-05-10T11:30:14.136Z,18.32
2019-05-10T11:32:46.427Z,18.21
2019-05-10T11:35:28.486Z,17.95
2019-05-10T11:37:53.689Z,17.61
2019-05-10T11:40:30.692Z,17.31
2019-05-10T11:43:01.492Z,16.95
2019-05-10T11:45:35.292Z,16.75
2019-05-10T11:48:07.807Z,16.63
2019-05-10T11:50:41.075Z,16.49
2019-05-10T11:53:17.408Z,16.31
2019-05-10T11:55:47.505Z,16.24
2019-05-10T11:58:23.505Z,17.13
2019-05-10T12:00:59.267Z,19.11
2019-05-10T12:03:27.525Z,19.68
2019-05-10T12:06:06.259Z,19.13
2019-05-10T12:08:34.740Z,18.34
2019-05-10T12:11:18.079Z,17.76
2019-05-10T12:13:40.904Z,16.99
2019-05-10T12:16:17.009Z,16.51
2019-05-10T12:19:02.333Z,16.43
2019-05-10T12:21:22.475Z,16.69
2019-05-10T12:23:56.171Z,16.81
2019-05-10T12:29:12.391Z,16.95
2019-05-10T12:31:36.509Z,17.28
2019-05-10T12:34:13.952Z,17.68
2019-05-10T12:36:44.676Z,17.85
2019-05-10T12:39:18.027Z,19.05
2019-05-10T12:41:52.971Z,19.77
2019-05-10T12:44:24.206Z,19.01
2019-05-10T12:46:56.731Z,18.54
2019-05-10T12:49:31.417Z,17.94
2019-05-10T12:52:03.397Z,17.89
2019-05-10T12:54:35.868Z,18.30
2019-05-10T12:57:08.277Z,19.24
2019-05-10T12:59:40.512Z,19.55
2019-05-10T13:02:13.205Z,19.86
2019-05-10T13:04:47.090Z,21.15
2019-05-10T13:07:19.578Z,21.15
2019-05-10T13:10:02.630Z,20.80
2019-05-10T13:12:25.738Z,20.07
2019-05-10T13:14:59.952Z,19.00
2019-05-10T13:17:32.220Z,18.10
2019-05-10T13:20:05.621Z,17.86
2019-05-10T13:22:39.459Z,17.69
2019-05-10T13:25:11.947Z,17.62
2019-05-10T13:27:45.084Z,17.55
2019-05-10T13:30:17.332Z,17.46
2019-05-10T13:32:52.820Z,17.40
2019-05-10T13:35:23.541Z,17.38
2019-05-10T13:37:56.997Z,16.82
2019-05-10T13:40:29.710Z,16.69
2019-05-10T13:43:03.113Z,16.68
2019-05-10T13:45:37.838Z,16.69
2019-05-10T13:48:09.384Z,16.91
2019-05-10T13:50:41.602Z,17.21
2019-05-10T13:53:21.327Z,19.16
2019-05-10T13:55:47.751Z,18.75
2019-05-10T13:58:20.042Z,17.93
2019-05-10T14:00:52.243Z,17.15
2019-05-10T14:03:24.453Z,16.46
2019-05-10T14:05:56.877Z,16.13
2019-05-10T14:08:29.141Z,15.92
2019-05-10T14:11:03.278Z,15.81
2019-05-10T14:13:41.487Z,16.02
2019-05-10T14:16:18.888Z,16.61
2019-05-10T14:18:44.819Z,17.62
2019-05-10T14:21:17.007Z,17.72
2019-05-10T14:23:49.304Z,17.49
2019-05-10T14:26:22.673Z,17.23
2019-05-10T14:28:55.034Z,17.07
2019-05-10T14:31:27.230Z,17.14
2019-05-10T14:34:14.607Z,17.39
2019-05-10T14:36:34.115Z,17.77
2019-05-10T14:39:07.727Z,17.96
2019-05-10T14:41:40.205Z,17.88
2019-05-10T14:44:12.617Z,17.49
2019-05-10T14:46:44.894Z,17.28
2019-05-10T14:49:17.190Z,16.82
2019-05-10T14:51:59.072Z,16.59
2019-05-10T14:54:24.710Z,16.33
2019-05-10T14:56:56.956Z,16.21
2019-05-10T14:59:33.128Z,16.26
2019-05-10T15:02:05.370Z,16.17
2019-05-10T15:04:46.844Z,16.18
2019-05-10T15:07:14.252Z,16.02
2019-05-10T15:09:45.767Z,15.73
2019-05-10T15:12:22.624Z,16.07
2019-05-10T15:14:51.981Z,16.71
2019-05-10T15:17:24.234Z,16.96
2019-05-10T15:19:59.774Z,16.99
2019-05-10T15:22:30.535Z,17.09
2019-05-10T15:25:03.823Z,16.48
2019-05-10T15:27:36.062Z,16.17
2019-05-10T15:30:09.562Z,15.88
2019-05-10T15:32:41.776Z,15.67
2019-05-10T15:35:14.121Z,15.36
2019-05-10T15:37:48.278Z,15.11
2019-05-10T15:40:20.276Z,15.02
2019-05-10T15:42:52.497Z,15.25
2019-05-10T15:45:24.971Z,15.71
2019-05-10T15:48:02.455Z,16.03
2019-05-10T15:50:32.537Z,16.43
2019-05-10T15:53:05.153Z,16.85
2019-05-10T15:55:37.217Z,16.98
2019-05-10T15:58:09.697Z,16.39
2019-05-10T16:00:41.994Z,16.07
2019-05-10T16:03:14.187Z,15.99
2019-05-10T16:05:59.980Z,16.07
2019-05-10T16:08:24.040Z,16.06
2019-05-10T16:10:54.327Z,16.15
2019-05-10T16:13:26.615Z,16.11
2019-05-10T16:15:59.545Z,16.15
2019-05-10T16:18:33.343Z,16.29
2019-05-10T16:21:09.683Z,16.49
2019-05-10T16:23:46.657Z,16.89
2019-05-10T16:26:17.551Z,17.13
2019-05-10T16:28:53.047Z,17.02
2019-05-10T16:31:24.153Z,16.95
2019-05-10T16:33:56.395Z,17.14
2019-05-10T16:36:30.138Z,17.34
2019-05-10T16:39:02.594Z,17.60
2019-05-10T16:41:35.497Z,19.24
2019-05-10T16:44:07.713Z,19.37
2019-05-10T16:46:39.996Z,19.31
2019-05-10T16:49:15.582Z,19.16
2019-05-10T16:51:47.683Z,19.51
2019-05-10T16:54:25.791Z,20.00
2019-05-10T16:56:59.426Z,20.73
2019-05-10T16:59:29.752Z,22.66
2019-05-10T17:02:04.652Z,24.24
2019-05-10T17:04:37.454Z,24.54
2019-05-10T17:07:13.065Z,24.58
2019-05-10T17:09:43.628Z,25.08
2019-05-10T17:12:15.916Z,24.90
2019-05-10T17:14:50.623Z,24.11
2019-05-10T17:17:22.341Z,25.28
2019-05-10T17:19:54.561Z,25.24
2019-05-10T17:22:26.810Z,23.87
2019-05-10T17:25:03.298Z,22.70
2019-05-10T17:27:33.145Z,21.75
2019-05-10T17:30:05.385Z,20.99
2019-05-10T17:32:37.685Z,20.55
2019-05-10T17:35:10.163Z,20.94
2019-05-10T17:37:42.393Z,20.66
2019-05-10T17:40:14.639Z,21.09
2019-05-10T17:42:46.873Z,20.70
2019-05-10T17:45:19.133Z,20.37
2019-05-10T17:47:51.705Z,19.49
2019-05-10T17:50:23.907Z,18.35
2019-05-10T17:52:56.151Z,17.54
2019-05-10T17:55:28.399Z,17.02
2019-05-10T17:58:00.733Z,16.60
2019-05-10T18:00:33.065Z,16.14
2019-05-10T18:03:05.337Z,15.68
2019-05-10T18:05:41.132Z,15.40
2019-05-10T18:08:11.499Z,15.20
2019-05-10T18:10:43.714Z,15.03
2019-05-10T18:13:15.958Z,14.91
2019-05-10T18:15:48.230Z,14.78
2019-05-10T18:18:20.485Z,14.58
2019-05-10T18:20:52.739Z,14.42
2019-05-10T18:23:24.971Z,14.28
2019-05-10T18:26:00.210Z,14.18
2019-05-10T18:28:32.607Z,14.06
2019-05-10T18:31:04.843Z,13.95
2019-05-10T18:33:37.091Z,13.79
2019-05-10T18:36:11.110Z,13.64
2019-05-10T18:38:43.479Z,13.50
2019-05-10T18:41:15.706Z,13.40
2019-05-10T18:43:49.939Z,13.29
2019-05-10T18:46:24.565Z,13.15
2019-05-10T18:48:56.086Z,13.06
2019-05-10T18:51:28.347Z,12.98
2019-05-10T18:54:00.571Z,12.88
2019-05-10T18:56:33.260Z,12.80
2019-05-10T18:59:07.522Z,12.75
2019-05-10T19:01:40.697Z,12.70
2019-05-10T19:04:15.583Z,12.62
2019-05-10T19:06:49.910Z,12.52
2019-05-10T19:09:20.977Z,12.46
2019-05-10T19:11:53.439Z,12.42
2019-05-10T19:14:29.748Z,12.36
2019-05-10T19:17:04.015Z,12.29
2019-05-10T19:19:37.455Z,12.22
2019-05-10T19:22:08.908Z,12.17
2019-05-10T19:24:41.813Z,12.11
2019-05-10T19:27:14.191Z,12.03
2019-05-10T19:29:47.977Z,11.95
2019-05-10T19:32:20.607Z,11.89
2019-05-10T19:34:57.169Z,11.86
2019-05-10T19:37:33.372Z,11.80
2019-05-10T19:40:01.203Z,11.77
2019-05-10T19:42:37.385Z,11.73
2019-05-10T19:45:07.597Z,11.71
2019-05-10T19:47:39.868Z,11.66
2019-05-10T19:50:12.085Z,11.63
2019-05-10T19:52:44.371Z,11.62
2019-05-10T19:55:19.350Z,11.64
2019-05-10T19:57:54.669Z,11.65
2019-05-10T20:00:25.167Z,11.63
2019-05-10T20:02:57.394Z,11.59
2019-05-10T20:05:29.601Z,11.51
2019-05-10T20:08:02.126Z,11.47
2019-05-10T20:10:34.832Z,11.43
2019-05-10T20:13:07.279Z,11.38
2019-05-10T20:15:39.492Z,11.30
2019-05-10T20:18:11.820Z,11.21
2019-05-10T20:20:44.218Z,11.12
2019-05-10T20:23:16.486Z,11.03
2019-05-10T20:25:48.681Z,10.99
2019-05-10T20:28:20.960Z,10.94
2019-05-10T20:30:54.251Z,10.87
2019-05-10T20:33:26.677Z,10.82
2019-05-10T20:35:58.991Z,10.80
2019-05-10T20:38:31.406Z,10.75
2019-05-10T20:41:03.696Z,10.70
2019-05-10T20:43:35.908Z,10.68
2019-05-10T20:46:11.060Z,10.71
2019-05-10T20:48:42.060Z,10.77
2019-05-10T20:51:14.463Z,10.78
2019-05-10T20:53:48.221Z,10.83
2019-05-10T20:56:20.662Z,10.83
2019-05-10T20:58:52.852Z,10.81
2019-05-10T21:01:25.137Z,10.81
2019-05-10T21:03:57.335Z,10.79
2019-05-10T21:06:29.654Z,10.74
2019-05-10T21:09:01.946Z,10.71
2019-05-10T21:11:35.774Z,10.69
2019-05-10T21:14:08.115Z,10.68
2019-05-10T21:16:40.339Z,10.64
2019-05-10T21:19:12.528Z,10.61
2019-05-10T21:21:44.785Z,10.55
2019-05-10T21:24:19.007Z,10.51
2019-05-10T21:26:51.257Z,10.46
2019-05-10T21:29:23.552Z,10.39
2019-05-10T21:31:55.846Z,10.35
2019-05-10T21:34:28.066Z,10.35
2019-05-10T21:37:00.346Z,10.34
2019-05-10T21:39:32.738Z,10.29
2019-05-10T21:42:05.052Z,10.28
2019-05-10T21:44:37.315Z,10.32
2019-05-10T21:47:09.596Z,10.36
2019-05-10T21:49:41.813Z,10.37
2019-05-10T21:52:14.141Z,10.37
2019-05-10T21:54:46.539Z,10.39
2019-05-10T21:57:20.174Z,10.36
2019-05-10T21:59:53.260Z,10.37
2019-05-10T22:02:25.411Z,10.35
2019-05-10T22:04:57.629Z,10.30
2019-05-10T22:07:29.853Z,10.25
2019-05-10T22:10:02.088Z,10.22
2019-05-10T22:12:34.311Z,10.19
2019-05-10T22:15:06.541Z,10.19
2019-05-10T22:17:39.091Z,10.25
2019-05-10T22:20:11.322Z,10.27
2019-05-10T22:22:43.566Z,10.25
2019-05-10T22:25:15.781Z,10.24
2019-05-10T22:27:48.009Z,10.22
2019-05-10T22:30:20.392Z,10.16
2019-05-10T22:32:52.587Z,10.04
2019-05-10T22:35:25.813Z,9.92
2019-05-10T22:37:58.024Z,9.79
2019-05-10T22:40:30.270Z,9.68
2019-05-10T22:43:02.464Z,9.56
2019-05-10T22:45:34.684Z,9.51
2019-05-10T22:48:07.046Z,9.48
2019-05-10T22:50:39.250Z,9.41
2019-05-10T22:53:13.502Z,9.37
2019-05-10T22:55:45.728Z,9.35
2019-05-10T22:58:17.978Z,9.38
2019-05-10T23:00:50.212Z,9.31
2019-05-10T23:03:24.711Z,9.27
2019-05-10T23:05:56.447Z,9.23
2019-05-10T23:08:28.740Z,9.18
2019-05-10T23:11:00.968Z,9.16
2019-05-10T23:13:33.181Z,9.17
2019-05-10T23:16:05.421Z,9.13
2019-05-10T23:18:37.704Z,9.11
2019-05-10T23:21:09.987Z,9.07
2019-05-10T23:23:42.222Z,9.04
2019-05-10T23:26:14.481Z,9.04
2019-05-10T23:28:46.689Z,9.01
2019-05-10T23:31:21.233Z,8.97
2019-05-10T23:33:53.479Z,8.93
2019-05-10T23:36:25.739Z,8.89
2019-05-10T23:38:58.015Z,8.83
2019-05-10T23:41:31.236Z,8.81
2019-05-10T23:44:03.589Z,8.73
2019-05-10T23:46:35.834Z,8.68
2019-05-10T23:49:08.043Z,8.63
2019-05-10T23:51:43.329Z,8.61
2019-05-10T23:54:15.492Z,8.59
2019-05-10T23:56:47.733Z,8.59
2019-05-10T23:59:19.976Z,8.56
